sensor_id;sensor_type;location;lat;lon;timestamp;P1;durP1;ratioP1;P2;durP2;ratioP2
52776;SDS011;38656;54.260;20.822;2023-09-12T00:01:17;14.00;;;12.80;;
52776;SDS011;38656;54.260;20.822;2023-09-12T00:03:43;14.18;;;12.93;;
52776;SDS011;38656;54.260;20.822;2023-09-12T00:06:09;13.82;;;12.70;;
52776;SDS011;38656;54.260;20.822;2023-09-12T00:08:35;13.82;;;12.63;;
52776;SDS011;38656;54.260;20.822;2023-09-12T00:11:01;14.90;;;13.43;;
52776;SDS011;38656;54.260;20.822;2023-09-12T00:13:28;15.32;;;13.55;;
52776;SDS011;38656;54.260;20.822;2023-09-12T00:15:54;13.77;;;12.75;;
52776;SDS011;38656;54.260;20.822;2023-09-12T00:18:20;13.68;;;12.68;;
52776;SDS011;38656;54.260;20.822;2023-09-12T00:20:46;14.15;;;12.77;;
52776;SDS011;38656;54.260;20.822;2023-09-12T00:23:12;13.57;;;12.48;;
52776;SDS011;38656;54.260;20.822;2023-09-12T00:25:38;13.48;;;12.38;;
52776;SDS011;38656;54.260;20.822;2023-09-12T00:28:04;14.23;;;12.95;;
52776;SDS011;38656;54.260;20.822;2023-09-12T00:30:30;14.88;;;13.32;;
52776;SDS011;38656;54.260;20.822;2023-09-12T00:32:56;13.80;;;12.63;;
52776;SDS011;38656;54.260;20.822;2023-09-12T00:35:22;14.45;;;12.95;;
52776;SDS011;38656;54.260;20.822;2023-09-12T00:37:48;14.35;;;13.05;;
52776;SDS011;38656;54.260;20.822;2023-09-12T00:40:14;14.25;;;13.05;;
52776;SDS011;38656;54.260;20.822;2023-09-12T00:42:40;13.38;;;12.20;;
52776;SDS011;38656;54.260;20.822;2023-09-12T00:45:06;14.05;;;12.95;;
52776;SDS011;38656;54.260;20.822;2023-09-12T00:47:32;13.98;;;12.75;;
52776;SDS011;38656;54.260;20.822;2023-09-12T00:49:58;13.32;;;12.32;;
52776;SDS011;38656;54.260;20.822;2023-09-12T00:52:25;13.75;;;12.65;;
52776;SDS011;38656;54.260;20.822;2023-09-12T00:54:52;14.35;;;12.93;;
52776;SDS011;38656;54.260;20.822;2023-09-12T00:57:19;12.25;;;11.25;;
52776;SDS011;38656;54.260;20.822;2023-09-12T00:59:45;16.30;;;13.02;;
52776;SDS011;38656;54.260;20.822;2023-09-12T01:02:11;13.32;;;12.23;;
52776;SDS011;38656;54.260;20.822;2023-09-12T01:04:37;16.33;;;14.60;;
52776;SDS011;38656;54.260;20.822;2023-09-12T01:07:03;14.38;;;12.85;;
52776;SDS011;38656;54.260;20.822;2023-09-12T01:09:30;14.25;;;12.68;;
52776;SDS011;38656;54.260;20.822;2023-09-12T01:11:56;13.43;;;12.43;;
52776;SDS011;38656;54.260;20.822;2023-09-12T01:14:22;16.00;;;14.60;;
52776;SDS011;38656;54.260;20.822;2023-09-12T01:16:48;15.10;;;13.57;;
52776;SDS011;38656;54.260;20.822;2023-09-12T01:19:15;15.13;;;13.57;;
52776;SDS011;38656;54.260;20.822;2023-09-12T01:27:17;14.57;;;13.38;;
52776;SDS011;38656;54.260;20.822;2023-09-12T01:29:45;14.20;;;12.88;;
52776;SDS011;38656;54.260;20.822;2023-09-12T01:32:12;13.55;;;12.25;;
52776;SDS011;38656;54.260;20.822;2023-09-12T01:34:39;12.88;;;11.88;;
52776;SDS011;38656;54.260;20.822;2023-09-12T01:37:05;14.05;;;12.73;;
52776;SDS011;38656;54.260;20.822;2023-09-12T01:39:31;13.52;;;12.20;;
52776;SDS011;38656;54.260;20.822;2023-09-12T01:41:58;13.85;;;12.45;;
52776;SDS011;38656;54.260;20.822;2023-09-12T01:44:25;12.65;;;11.57;;
52776;SDS011;38656;54.260;20.822;2023-09-12T01:46:53;13.73;;;12.63;;
52776;SDS011;38656;54.260;20.822;2023-09-12T01:49:21;14.65;;;12.50;;
52776;SDS011;38656;54.260;20.822;2023-09-12T01:51:48;12.70;;;11.50;;
52776;SDS011;38656;54.260;20.822;2023-09-12T01:54:15;12.70;;;11.70;;
52776;SDS011;38656;54.260;20.822;2023-09-12T01:56:41;11.55;;;10.60;;
52776;SDS011;38656;54.260;20.822;2023-09-12T01:59:08;12.95;;;11.85;;
52776;SDS011;38656;54.260;20.822;2023-09-12T02:01:34;13.43;;;12.40;;
52776;SDS011;38656;54.260;20.822;2023-09-12T02:04:00;12.23;;;11.25;;
52776;SDS011;38656;54.260;20.822;2023-09-12T02:06:26;13.68;;;11.73;;
52776;SDS011;38656;54.260;20.822;2023-09-12T02:08:52;12.65;;;11.55;;
52776;SDS011;38656;54.260;20.822;2023-09-12T02:11:18;13.30;;;12.10;;
52776;SDS011;38656;54.260;20.822;2023-09-12T02:13:44;13.23;;;11.63;;
52776;SDS011;38656;54.260;20.822;2023-09-12T02:16:10;13.07;;;11.98;;
52776;SDS011;38656;54.260;20.822;2023-09-12T02:18:36;14.30;;;12.75;;
52776;SDS011;38656;54.260;20.822;2023-09-12T02:21:02;14.40;;;12.23;;
52776;SDS011;38656;54.260;20.822;2023-09-12T02:23:28;11.95;;;10.95;;
52776;SDS011;38656;54.260;20.822;2023-09-12T02:25:55;13.48;;;11.35;;
52776;SDS011;38656;54.260;20.822;2023-09-12T02:28:22;12.25;;;11.25;;
52776;SDS011;38656;54.260;20.822;2023-09-12T02:30:48;11.45;;;10.57;;
52776;SDS011;38656;54.260;20.822;2023-09-12T02:33:14;11.48;;;10.45;;
52776;SDS011;38656;54.260;20.822;2023-09-12T02:35:40;12.23;;;11.25;;
52776;SDS011;38656;54.260;20.822;2023-09-12T02:38:06;16.35;;;11.38;;
52776;SDS011;38656;54.260;20.822;2023-09-12T02:40:32;12.35;;;11.18;;
52776;SDS011;38656;54.260;20.822;2023-09-12T02:42:58;12.45;;;11.30;;
52776;SDS011;38656;54.260;20.822;2023-09-12T02:45:24;12.20;;;11.20;;
52776;SDS011;38656;54.260;20.822;2023-09-12T02:47:50;15.07;;;12.65;;
52776;SDS011;38656;54.260;20.822;2023-09-12T02:50:16;12.27;;;11.07;;
52776;SDS011;38656;54.260;20.822;2023-09-12T02:52:42;11.82;;;10.55;;
52776;SDS011;38656;54.260;20.822;2023-09-12T02:55:08;12.60;;;10.82;;
52776;SDS011;38656;54.260;20.822;2023-09-12T02:57:34;12.18;;;11.18;;
52776;SDS011;38656;54.260;20.822;2023-09-12T03:00:00;11.85;;;10.85;;
52776;SDS011;38656;54.260;20.822;2023-09-12T03:02:26;12.70;;;11.20;;
52776;SDS011;38656;54.260;20.822;2023-09-12T03:04:53;12.88;;;11.02;;
52776;SDS011;38656;54.260;20.822;2023-09-12T03:07:19;12.75;;;11.18;;
52776;SDS011;38656;54.260;20.822;2023-09-12T03:09:49;12.30;;;11.40;;
52776;SDS011;38656;54.260;20.822;2023-09-12T03:12:15;12.23;;;11.32;;
52776;SDS011;38656;54.260;20.822;2023-09-12T03:14:41;12.23;;;11.23;;
52776;SDS011;38656;54.260;20.822;2023-09-12T03:17:07;11.65;;;10.70;;
52776;SDS011;38656;54.260;20.822;2023-09-12T03:19:33;12.43;;;11.18;;
52776;SDS011;38656;54.260;20.822;2023-09-12T03:21:59;12.05;;;11.05;;
52776;SDS011;38656;54.260;20.822;2023-09-12T03:24:25;12.55;;;11.35;;
52776;SDS011;38656;54.260;20.822;2023-09-12T03:26:53;13.23;;;12.10;;
52776;SDS011;38656;54.260;20.822;2023-09-12T03:29:20;12.85;;;11.65;;
52776;SDS011;38656;54.260;20.822;2023-09-12T03:31:46;12.85;;;11.65;;
52776;SDS011;38656;54.260;20.822;2023-09-12T03:34:12;12.85;;;11.55;;
52776;SDS011;38656;54.260;20.822;2023-09-12T03:36:38;12.90;;;11.68;;
52776;SDS011;38656;54.260;20.822;2023-09-12T03:39:04;12.80;;;11.80;;
52776;SDS011;38656;54.260;20.822;2023-09-12T03:41:33;11.95;;;10.80;;
52776;SDS011;38656;54.260;20.822;2023-09-12T03:43:59;12.55;;;11.35;;
52776;SDS011;38656;54.260;20.822;2023-09-12T03:46:25;11.45;;;10.50;;
52776;SDS011;38656;54.260;20.822;2023-09-12T03:48:51;10.73;;;9.82;;
52776;SDS011;38656;54.260;20.822;2023-09-12T03:51:17;12.65;;;11.43;;
52776;SDS011;38656;54.260;20.822;2023-09-12T03:53:43;14.55;;;11.18;;
52776;SDS011;38656;54.260;20.822;2023-09-12T03:56:10;12.18;;;11.15;;
52776;SDS011;38656;54.260;20.822;2023-09-12T03:58:37;13.30;;;11.95;;
52776;SDS011;38656;54.260;20.822;2023-09-12T04:01:04;16.33;;;12.40;;
52776;SDS011;38656;54.260;20.822;2023-09-12T04:03:30;15.68;;;11.90;;
52776;SDS011;38656;54.260;20.822;2023-09-12T04:05:56;14.50;;;12.55;;
52776;SDS011;38656;54.260;20.822;2023-09-12T04:08:22;13.77;;;12.50;;
52776;SDS011;38656;54.260;20.822;2023-09-12T04:10:48;12.25;;;11.18;;
52776;SDS011;38656;54.260;20.822;2023-09-12T04:13:14;12.95;;;11.95;;
52776;SDS011;38656;54.260;20.822;2023-09-12T04:15:40;15.20;;;12.65;;
52776;SDS011;38656;54.260;20.822;2023-09-12T04:18:06;12.38;;;11.38;;
52776;SDS011;38656;54.260;20.822;2023-09-12T04:20:32;13.43;;;12.32;;
52776;SDS011;38656;54.260;20.822;2023-09-12T04:23:02;13.45;;;11.85;;
52776;SDS011;38656;54.260;20.822;2023-09-12T04:25:28;13.02;;;11.88;;
52776;SDS011;38656;54.260;20.822;2023-09-12T04:27:54;12.48;;;11.40;;
52776;SDS011;38656;54.260;20.822;2023-09-12T04:30:20;15.30;;;11.38;;
52776;SDS011;38656;54.260;20.822;2023-09-12T04:32:47;17.52;;;12.40;;
52776;SDS011;38656;54.260;20.822;2023-09-12T04:35:13;13.32;;;12.02;;
52776;SDS011;38656;54.260;20.822;2023-09-12T04:37:39;15.02;;;13.05;;
52776;SDS011;38656;54.260;20.822;2023-09-12T04:40:06;15.00;;;13.45;;
52776;SDS011;38656;54.260;20.822;2023-09-12T04:42:32;14.38;;;12.88;;
52776;SDS011;38656;54.260;20.822;2023-09-12T04:44:58;14.30;;;12.80;;
52776;SDS011;38656;54.260;20.822;2023-09-12T04:47:24;17.27;;;13.27;;
52776;SDS011;38656;54.260;20.822;2023-09-12T04:49:50;12.43;;;11.50;;
52776;SDS011;38656;54.260;20.822;2023-09-12T04:52:17;15.13;;;13.05;;
52776;SDS011;38656;54.260;20.822;2023-09-12T04:54:43;13.13;;;12.05;;
52776;SDS011;38656;54.260;20.822;2023-09-12T04:57:09;14.70;;;13.30;;
52776;SDS011;38656;54.260;20.822;2023-09-12T04:59:35;14.00;;;12.55;;
52776;SDS011;38656;54.260;20.822;2023-09-12T05:02:01;15.05;;;13.75;;
52776;SDS011;38656;54.260;20.822;2023-09-12T05:04:28;14.55;;;13.35;;
52776;SDS011;38656;54.260;20.822;2023-09-12T05:06:54;13.35;;;12.18;;
52776;SDS011;38656;54.260;20.822;2023-09-12T05:09:20;14.20;;;12.75;;
52776;SDS011;38656;54.260;20.822;2023-09-12T05:11:46;13.77;;;12.50;;
52776;SDS011;38656;54.260;20.822;2023-09-12T05:14:12;14.30;;;13.05;;
52776;SDS011;38656;54.260;20.822;2023-09-12T05:16:38;17.55;;;15.70;;
52776;SDS011;38656;54.260;20.822;2023-09-12T05:19:04;21.25;;;19.23;;
52776;SDS011;38656;54.260;20.822;2023-09-12T05:21:30;21.38;;;19.58;;
52776;SDS011;38656;54.260;20.822;2023-09-12T05:23:56;24.92;;;21.17;;
52776;SDS011;38656;54.260;20.822;2023-09-12T05:26:22;24.85;;;22.75;;
52776;SDS011;38656;54.260;20.822;2023-09-12T05:28:49;24.33;;;21.95;;
52776;SDS011;38656;54.260;20.822;2023-09-12T05:31:15;23.50;;;21.60;;
52776;SDS011;38656;54.260;20.822;2023-09-12T05:33:41;24.30;;;22.10;;
52776;SDS011;38656;54.260;20.822;2023-09-12T05:36:07;23.85;;;21.75;;
52776;SDS011;38656;54.260;20.822;2023-09-12T05:38:33;23.77;;;21.67;;
52776;SDS011;38656;54.260;20.822;2023-09-12T05:40:59;23.77;;;21.55;;
52776;SDS011;38656;54.260;20.822;2023-09-12T05:43:25;24.52;;;22.35;;
52776;SDS011;38656;54.260;20.822;2023-09-12T05:45:51;25.25;;;23.17;;
52776;SDS011;38656;54.260;20.822;2023-09-12T05:48:18;24.52;;;22.60;;
52776;SDS011;38656;54.260;20.822;2023-09-12T05:50:44;23.73;;;21.73;;
52776;SDS011;38656;54.260;20.822;2023-09-12T05:53:10;22.77;;;20.58;;
52776;SDS011;38656;54.260;20.822;2023-09-12T05:55:36;21.08;;;19.30;;
52776;SDS011;38656;54.260;20.822;2023-09-12T05:58:02;20.08;;;17.83;;
52776;SDS011;38656;54.260;20.822;2023-09-12T06:00:30;18.85;;;17.05;;
52776;SDS011;38656;54.260;20.822;2023-09-12T06:02:56;16.48;;;15.07;;
52776;SDS011;38656;54.260;20.822;2023-09-12T06:05:22;17.17;;;15.88;;
52776;SDS011;38656;54.260;20.822;2023-09-12T06:07:48;18.50;;;16.70;;
52776;SDS011;38656;54.260;20.822;2023-09-12T06:10:14;16.30;;;14.75;;
52776;SDS011;38656;54.260;20.822;2023-09-12T06:12:40;17.38;;;15.60;;
52776;SDS011;38656;54.260;20.822;2023-09-12T06:15:07;16.88;;;15.48;;
52776;SDS011;38656;54.260;20.822;2023-09-12T06:17:33;17.15;;;15.75;;
52776;SDS011;38656;54.260;20.822;2023-09-12T06:19:59;16.48;;;14.95;;
52776;SDS011;38656;54.260;20.822;2023-09-12T06:22:25;15.55;;;14.15;;
52776;SDS011;38656;54.260;20.822;2023-09-12T06:24:51;17.20;;;15.63;;
52776;SDS011;38656;54.260;20.822;2023-09-12T06:27:17;16.33;;;14.38;;
52776;SDS011;38656;54.260;20.822;2023-09-12T06:29:47;15.48;;;14.10;;
52776;SDS011;38656;54.260;20.822;2023-09-12T06:32:15;17.30;;;14.52;;
52776;SDS011;38656;54.260;20.822;2023-09-12T06:34:41;20.05;;;13.35;;
52776;SDS011;38656;54.260;20.822;2023-09-12T06:37:07;17.13;;;13.32;;
52776;SDS011;38656;54.260;20.822;2023-09-12T06:39:33;19.98;;;13.57;;
52776;SDS011;38656;54.260;20.822;2023-09-12T06:41:59;25.65;;;14.40;;
52776;SDS011;38656;54.260;20.822;2023-09-12T06:44:25;16.27;;;14.00;;
52776;SDS011;38656;54.260;20.822;2023-09-12T06:46:51;20.17;;;13.18;;
52776;SDS011;38656;54.260;20.822;2023-09-12T06:49:17;15.10;;;13.60;;
52776;SDS011;38656;54.260;20.822;2023-09-12T06:51:43;23.17;;;13.90;;
52776;SDS011;38656;54.260;20.822;2023-09-12T06:54:09;18.98;;;14.18;;
52776;SDS011;38656;54.260;20.822;2023-09-12T06:56:35;19.27;;;13.40;;
52776;SDS011;38656;54.260;20.822;2023-09-12T06:59:03;20.52;;;13.45;;
52776;SDS011;38656;54.260;20.822;2023-09-12T07:01:29;21.23;;;13.93;;
52776;SDS011;38656;54.260;20.822;2023-09-12T07:03:56;25.90;;;13.45;;
52776;SDS011;38656;54.260;20.822;2023-09-12T07:06:22;23.13;;;12.13;;
52776;SDS011;38656;54.260;20.822;2023-09-12T07:08:48;20.52;;;14.43;;
52776;SDS011;38656;54.260;20.822;2023-09-12T07:11:15;19.67;;;13.38;;
52776;SDS011;38656;54.260;20.822;2023-09-12T07:13:41;22.63;;;13.63;;
52776;SDS011;38656;54.260;20.822;2023-09-12T07:16:07;18.42;;;13.15;;
52776;SDS011;38656;54.260;20.822;2023-09-12T07:18:33;22.75;;;13.15;;
52776;SDS011;38656;54.260;20.822;2023-09-12T07:21:03;14.45;;;12.18;;
52776;SDS011;38656;54.260;20.822;2023-09-12T07:23:31;25.27;;;11.73;;
52776;SDS011;38656;54.260;20.822;2023-09-12T07:25:58;22.10;;;12.50;;
52776;SDS011;38656;54.260;20.822;2023-09-12T07:28:27;15.55;;;11.82;;
52776;SDS011;38656;54.260;20.822;2023-09-12T07:30:53;27.15;;;11.82;;
52776;SDS011;38656;54.260;20.822;2023-09-12T07:33:20;21.58;;;11.63;;
52776;SDS011;38656;54.260;20.822;2023-09-12T07:35:46;16.27;;;10.70;;
52776;SDS011;38656;54.260;20.822;2023-09-12T07:38:13;16.25;;;12.00;;
52776;SDS011;38656;54.260;20.822;2023-09-12T07:40:42;19.95;;;10.35;;
52776;SDS011;38656;54.260;20.822;2023-09-12T07:43:08;27.92;;;10.27;;
52776;SDS011;38656;54.260;20.822;2023-09-12T07:45:35;15.52;;;9.40;;
52776;SDS011;38656;54.260;20.822;2023-09-12T07:48:07;18.02;;;10.18;;
52776;SDS011;38656;54.260;20.822;2023-09-12T07:50:34;12.52;;;9.70;;
52776;SDS011;38656;54.260;20.822;2023-09-12T07:53:03;16.75;;;10.00;;
52776;SDS011;38656;54.260;20.822;2023-09-12T07:55:30;14.18;;;8.95;;
52776;SDS011;38656;54.260;20.822;2023-09-12T07:58:01;21.00;;;9.43;;
52776;SDS011;38656;54.260;20.822;2023-09-12T08:00:27;13.00;;;8.55;;
52776;SDS011;38656;54.260;20.822;2023-09-12T08:02:52;11.40;;;9.27;;
52776;SDS011;38656;54.260;20.822;2023-09-12T08:05:18;9.48;;;7.47;;
52776;SDS011;38656;54.260;20.822;2023-09-12T08:07:44;9.57;;;8.00;;
52776;SDS011;38656;54.260;20.822;2023-09-12T08:10:10;11.88;;;7.53;;
52776;SDS011;38656;54.260;20.822;2023-09-12T08:12:36;17.33;;;7.85;;
52776;SDS011;38656;54.260;20.822;2023-09-12T08:15:06;14.13;;;7.95;;
52776;SDS011;38656;54.260;20.822;2023-09-12T08:17:33;14.77;;;7.05;;
52776;SDS011;38656;54.260;20.822;2023-09-12T08:19:59;9.90;;;7.35;;
52776;SDS011;38656;54.260;20.822;2023-09-12T08:22:25;21.80;;;8.18;;
52776;SDS011;38656;54.260;20.822;2023-09-12T08:24:51;11.55;;;7.85;;
52776;SDS011;38656;54.260;20.822;2023-09-12T08:27:17;10.30;;;7.68;;
52776;SDS011;38656;54.260;20.822;2023-09-12T08:29:43;8.48;;;7.55;;
52776;SDS011;38656;54.260;20.822;2023-09-12T08:32:11;10.98;;;7.93;;
52776;SDS011;38656;54.260;20.822;2023-09-12T08:34:37;10.90;;;8.10;;
52776;SDS011;38656;54.260;20.822;2023-09-12T08:37:03;11.15;;;7.03;;
52776;SDS011;38656;54.260;20.822;2023-09-12T08:39:40;12.05;;;7.03;;
52776;SDS011;38656;54.260;20.822;2023-09-12T08:42:07;12.43;;;6.95;;
52776;SDS011;38656;54.260;20.822;2023-09-12T08:44:34;26.10;;;8.95;;
52776;SDS011;38656;54.260;20.822;2023-09-12T08:47:00;11.40;;;7.18;;
52776;SDS011;38656;54.260;20.822;2023-09-12T08:49:26;12.38;;;7.13;;
52776;SDS011;38656;54.260;20.822;2023-09-12T08:51:53;12.57;;;7.63;;
52776;SDS011;38656;54.260;20.822;2023-09-12T08:54:19;13.57;;;7.13;;
52776;SDS011;38656;54.260;20.822;2023-09-12T08:56:45;10.43;;;7.00;;
52776;SDS011;38656;54.260;20.822;2023-09-12T08:59:11;9.48;;;7.57;;
52776;SDS011;38656;54.260;20.822;2023-09-12T09:01:37;7.47;;;6.57;;
52776;SDS011;38656;54.260;20.822;2023-09-12T09:04:04;9.60;;;7.00;;
52776;SDS011;38656;54.260;20.822;2023-09-12T09:06:31;8.30;;;7.03;;
52776;SDS011;38656;54.260;20.822;2023-09-12T09:08:58;7.43;;;6.53;;
52776;SDS011;38656;54.260;20.822;2023-09-12T09:11:25;13.38;;;7.45;;
52776;SDS011;38656;54.260;20.822;2023-09-12T09:13:53;8.57;;;6.50;;
52776;SDS011;38656;54.260;20.822;2023-09-12T09:16:19;8.75;;;7.13;;
52776;SDS011;38656;54.260;20.822;2023-09-12T09:21:22;11.60;;;6.97;;
52776;SDS011;38656;54.260;20.822;2023-09-12T09:23:50;7.45;;;6.72;;
52776;SDS011;38656;54.260;20.822;2023-09-12T09:26:16;9.73;;;7.68;;
52776;SDS011;38656;54.260;20.822;2023-09-12T09:28:42;7.20;;;6.55;;
52776;SDS011;38656;54.260;20.822;2023-09-12T09:31:14;11.00;;;7.22;;
52776;SDS011;38656;54.260;20.822;2023-09-12T09:33:40;9.27;;;7.95;;
52776;SDS011;38656;54.260;20.822;2023-09-12T09:36:10;11.20;;;7.65;;
52776;SDS011;38656;54.260;20.822;2023-09-12T09:38:36;10.88;;;7.15;;
52776;SDS011;38656;54.260;20.822;2023-09-12T09:41:06;7.60;;;6.93;;
52776;SDS011;38656;54.260;20.822;2023-09-12T09:43:32;8.18;;;7.32;;
52776;SDS011;38656;54.260;20.822;2023-09-12T09:45:58;10.82;;;7.10;;
52776;SDS011;38656;54.260;20.822;2023-09-12T09:48:25;8.93;;;7.10;;
52776;SDS011;38656;54.260;20.822;2023-09-12T09:51:02;9.65;;;6.55;;
52776;SDS011;38656;54.260;20.822;2023-09-12T09:53:31;7.90;;;6.75;;
52776;SDS011;38656;54.260;20.822;2023-09-12T09:58:34;10.63;;;7.90;;
52776;SDS011;38656;54.260;20.822;2023-09-12T10:01:00;8.90;;;8.07;;
52776;SDS011;38656;54.260;20.822;2023-09-12T10:03:28;11.98;;;8.85;;
52776;SDS011;38656;54.260;20.822;2023-09-12T10:05:56;9.15;;;8.18;;
52776;SDS011;38656;54.260;20.822;2023-09-12T10:08:23;8.75;;;7.78;;
52776;SDS011;38656;54.260;20.822;2023-09-12T10:10:49;9.10;;;7.75;;
52776;SDS011;38656;54.260;20.822;2023-09-12T10:13:16;8.45;;;7.30;;
52776;SDS011;38656;54.260;20.822;2023-09-12T10:15:44;11.07;;;8.38;;
52776;SDS011;38656;54.260;20.822;2023-09-12T10:18:13;10.50;;;7.32;;
52776;SDS011;38656;54.260;20.822;2023-09-12T10:20:54;7.78;;;6.97;;
52776;SDS011;38656;54.260;20.822;2023-09-12T10:25:47;9.85;;;6.82;;
52776;SDS011;38656;54.260;20.822;2023-09-12T10:28:14;11.23;;;6.35;;
52776;SDS011;38656;54.260;20.822;2023-09-12T10:30:41;9.98;;;7.63;;
52776;SDS011;38656;54.260;20.822;2023-09-12T10:33:07;9.05;;;7.68;;
52776;SDS011;38656;54.260;20.822;2023-09-12T10:35:33;10.20;;;7.22;;
52776;SDS011;38656;54.260;20.822;2023-09-12T10:38:01;9.80;;;6.90;;
52776;SDS011;38656;54.260;20.822;2023-09-12T10:40:31;7.88;;;6.65;;
52776;SDS011;38656;54.260;20.822;2023-09-12T10:42:57;7.00;;;6.40;;
52776;SDS011;38656;54.260;20.822;2023-09-12T10:45:25;7.57;;;6.40;;
52776;SDS011;38656;54.260;20.822;2023-09-12T10:47:52;13.73;;;6.65;;
52776;SDS011;38656;54.260;20.822;2023-09-12T10:50:19;9.48;;;7.45;;
52776;SDS011;38656;54.260;20.822;2023-09-12T10:52:45;9.00;;;6.55;;
52776;SDS011;38656;54.260;20.822;2023-09-12T10:55:17;9.85;;;6.35;;
52776;SDS011;38656;54.260;20.822;2023-09-12T11:00:29;6.95;;;5.80;;
52776;SDS011;38656;54.260;20.822;2023-09-12T11:02:57;9.85;;;5.78;;
52776;SDS011;38656;54.260;20.822;2023-09-12T11:08:00;7.03;;;6.45;;
52776;SDS011;38656;54.260;20.822;2023-09-12T11:10:29;9.10;;;6.15;;
52776;SDS011;38656;54.260;20.822;2023-09-12T11:12:57;7.63;;;6.15;;
52776;SDS011;38656;54.260;20.822;2023-09-12T11:15:24;8.63;;;6.30;;
52776;SDS011;38656;54.260;20.822;2023-09-12T11:18:03;8.82;;;6.47;;
52776;SDS011;38656;54.260;20.822;2023-09-12T11:23:20;7.68;;;5.93;;
52776;SDS011;38656;54.260;20.822;2023-09-12T11:25:46;6.50;;;5.90;;
52776;SDS011;38656;54.260;20.822;2023-09-12T11:28:13;8.55;;;5.97;;
52776;SDS011;38656;54.260;20.822;2023-09-12T11:30:54;10.85;;;6.50;;
52776;SDS011;38656;54.260;20.822;2023-09-12T11:33:21;7.32;;;6.63;;
52776;SDS011;38656;54.260;20.822;2023-09-12T11:35:49;8.65;;;6.72;;
52776;SDS011;38656;54.260;20.822;2023-09-12T11:38:25;7.95;;;6.05;;
52776;SDS011;38656;54.260;20.822;2023-09-12T11:40:52;10.57;;;6.30;;
52776;SDS011;38656;54.260;20.822;2023-09-12T11:43:22;8.77;;;6.20;;
52776;SDS011;38656;54.260;20.822;2023-09-12T11:45:48;10.45;;;7.03;;
52776;SDS011;38656;54.260;20.822;2023-09-12T11:48:16;10.93;;;5.97;;
52776;SDS011;38656;54.260;20.822;2023-09-12T11:50:42;8.07;;;5.75;;
52776;SDS011;38656;54.260;20.822;2023-09-12T11:53:14;12.98;;;6.20;;
52776;SDS011;38656;54.260;20.822;2023-09-12T11:55:44;10.00;;;6.78;;
52776;SDS011;38656;54.260;20.822;2023-09-12T11:58:10;21.13;;;6.15;;
52776;SDS011;38656;54.260;20.822;2023-09-12T12:00:39;7.97;;;5.85;;
52776;SDS011;38656;54.260;20.822;2023-09-12T12:03:08;12.30;;;5.80;;
52776;SDS011;38656;54.260;20.822;2023-09-12T12:05:34;12.57;;;6.10;;
52776;SDS011;38656;54.260;20.822;2023-09-12T12:08:00;8.98;;;5.80;;
52776;SDS011;38656;54.260;20.822;2023-09-12T12:10:27;13.38;;;6.60;;
52776;SDS011;38656;54.260;20.822;2023-09-12T12:12:54;8.57;;;6.32;;
52776;SDS011;38656;54.260;20.822;2023-09-12T12:15:20;7.57;;;6.78;;
52776;SDS011;38656;54.260;20.822;2023-09-12T12:17:46;6.32;;;5.82;;
52776;SDS011;38656;54.260;20.822;2023-09-12T12:20:12;13.00;;;5.43;;
52776;SDS011;38656;54.260;20.822;2023-09-12T12:22:40;8.98;;;6.13;;
52776;SDS011;38656;54.260;20.822;2023-09-12T12:25:07;6.60;;;5.60;;
52776;SDS011;38656;54.260;20.822;2023-09-12T12:27:35;10.45;;;6.13;;
52776;SDS011;38656;54.260;20.822;2023-09-12T12:30:01;11.25;;;6.28;;
52776;SDS011;38656;54.260;20.822;2023-09-12T12:32:28;9.15;;;6.40;;
52776;SDS011;38656;54.260;20.822;2023-09-12T12:34:54;16.35;;;6.63;;
52776;SDS011;38656;54.260;20.822;2023-09-12T12:37:20;23.25;;;7.00;;
52776;SDS011;38656;54.260;20.822;2023-09-12T12:39:46;7.22;;;5.47;;
52776;SDS011;38656;54.260;20.822;2023-09-12T12:42:12;9.30;;;5.93;;
52776;SDS011;38656;54.260;20.822;2023-09-12T12:44:38;9.88;;;6.15;;
52776;SDS011;38656;54.260;20.822;2023-09-12T12:47:06;14.50;;;6.68;;
52776;SDS011;38656;54.260;20.822;2023-09-12T12:49:36;6.80;;;5.88;;
52776;SDS011;38656;54.260;20.822;2023-09-12T12:52:03;10.65;;;6.63;;
52776;SDS011;38656;54.260;20.822;2023-09-12T12:54:33;7.78;;;5.78;;
52776;SDS011;38656;54.260;20.822;2023-09-12T12:56:59;10.50;;;7.55;;
52776;SDS011;38656;54.260;20.822;2023-09-12T12:59:26;10.40;;;6.85;;
52776;SDS011;38656;54.260;20.822;2023-09-12T13:01:54;6.82;;;5.15;;
52776;SDS011;38656;54.260;20.822;2023-09-12T13:04:20;9.82;;;5.75;;
52776;SDS011;38656;54.260;20.822;2023-09-12T13:06:47;8.32;;;6.40;;
52776;SDS011;38656;54.260;20.822;2023-09-12T13:09:13;7.38;;;5.97;;
52776;SDS011;38656;54.260;20.822;2023-09-12T13:11:41;7.88;;;5.65;;
52776;SDS011;38656;54.260;20.822;2023-09-12T13:14:08;9.52;;;6.30;;
52776;SDS011;38656;54.260;20.822;2023-09-12T13:16:36;5.93;;;5.43;;
52776;SDS011;38656;54.260;20.822;2023-09-12T13:19:03;6.25;;;5.70;;
52776;SDS011;38656;54.260;20.822;2023-09-12T13:21:29;12.80;;;5.65;;
52776;SDS011;38656;54.260;20.822;2023-09-12T13:23:57;6.75;;;5.90;;
52776;SDS011;38656;54.260;20.822;2023-09-12T13:26:23;10.18;;;6.15;;
52776;SDS011;38656;54.260;20.822;2023-09-12T13:28:49;8.30;;;6.90;;
52776;SDS011;38656;54.260;20.822;2023-09-12T13:31:15;8.18;;;5.90;;
52776;SDS011;38656;54.260;20.822;2023-09-12T13:33:41;6.13;;;5.05;;
52776;SDS011;38656;54.260;20.822;2023-09-12T13:36:07;10.23;;;6.32;;
52776;SDS011;38656;54.260;20.822;2023-09-12T13:38:34;12.70;;;6.75;;
52776;SDS011;38656;54.260;20.822;2023-09-12T13:41:00;7.88;;;6.05;;
52776;SDS011;38656;54.260;20.822;2023-09-12T13:43:26;9.75;;;6.07;;
52776;SDS011;38656;54.260;20.822;2023-09-12T13:45:53;7.55;;;5.80;;
52776;SDS011;38656;54.260;20.822;2023-09-12T13:48:19;7.35;;;6.55;;
52776;SDS011;38656;54.260;20.822;2023-09-12T13:50:45;7.07;;;5.88;;
52776;SDS011;38656;54.260;20.822;2023-09-12T13:53:11;8.77;;;6.03;;
52776;SDS011;38656;54.260;20.822;2023-09-12T13:55:37;9.00;;;6.45;;
52776;SDS011;38656;54.260;20.822;2023-09-12T13:58:04;9.68;;;6.47;;
52776;SDS011;38656;54.260;20.822;2023-09-12T14:00:31;8.20;;;5.78;;
52776;SDS011;38656;54.260;20.822;2023-09-12T14:02:57;6.15;;;5.55;;
52776;SDS011;38656;54.260;20.822;2023-09-12T14:05:23;7.20;;;6.05;;
52776;SDS011;38656;54.260;20.822;2023-09-12T14:07:49;9.35;;;6.75;;
52776;SDS011;38656;54.260;20.822;2023-09-12T14:10:16;8.48;;;5.90;;
52776;SDS011;38656;54.260;20.822;2023-09-12T14:12:42;9.98;;;6.13;;
52776;SDS011;38656;54.260;20.822;2023-09-12T14:15:11;6.90;;;6.20;;
52776;SDS011;38656;54.260;20.822;2023-09-12T14:17:39;8.38;;;6.13;;
52776;SDS011;38656;54.260;20.822;2023-09-12T14:20:05;7.25;;;6.55;;
52776;SDS011;38656;54.260;20.822;2023-09-12T14:22:32;8.52;;;5.70;;
52776;SDS011;38656;54.260;20.822;2023-09-12T14:24:58;9.18;;;6.45;;
52776;SDS011;38656;54.260;20.822;2023-09-12T14:27:25;7.10;;;6.35;;
52776;SDS011;38656;54.260;20.822;2023-09-12T14:29:51;9.95;;;7.03;;
52776;SDS011;38656;54.260;20.822;2023-09-12T14:32:17;9.00;;;8.18;;
52776;SDS011;38656;54.260;20.822;2023-09-12T14:34:43;7.88;;;6.40;;
52776;SDS011;38656;54.260;20.822;2023-09-12T14:37:10;10.55;;;6.25;;